sensor_id;sensor_type;location;lat;lon;timestamp;temperature;humidity
24468;DHT22;12634;50.852;5.676;2023-05-28T00:00:07;11.10;99.90
24468;DHT22;12634;50.852;5.676;2023-05-28T00:02:36;11.00;99.90
24468;DHT22;12634;50.852;5.676;2023-05-28T00:05:04;10.90;99.90
24468;DHT22;12634;50.852;5.676;2023-05-28T00:07:31;10.70;99.90
24468;DHT22;12634;50.852;5.676;2023-05-28T00:09:58;10.70;99.90
24468;DHT22;12634;50.852;5.676;2023-05-28T00:12:26;10.60;99.90
24468;DHT22;12634;50.852;5.676;2023-05-28T00:14:53;10.70;99.90
24468;DHT22;12634;50.852;5.676;2023-05-28T00:17:22;10.60;99.90
24468;DHT22;12634;50.852;5.676;2023-05-28T00:19:49;10.60;99.90
24468;DHT22;12634;50.852;5.676;2023-05-28T00:22:16;10.60;99.90
24468;DHT22;12634;50.852;5.676;2023-05-28T00:24:43;10.50;99.90
24468;DHT22;12634;50.852;5.676;2023-05-28T00:27:11;10.40;99.90
24468;DHT22;12634;50.852;5.676;2023-05-28T00:29:38;10.40;99.90
24468;DHT22;12634;50.852;5.676;2023-05-28T00:32:05;10.40;99.90
24468;DHT22;12634;50.852;5.676;2023-05-28T00:34:34;10.40;99.90
24468;DHT22;12634;50.852;5.676;2023-05-28T00:37:01;10.50;99.90
24468;DHT22;12634;50.852;5.676;2023-05-28T00:39:29;10.60;99.90
24468;DHT22;12634;50.852;5.676;2023-05-28T00:42:00;10.50;99.90
24468;DHT22;12634;50.852;5.676;2023-05-28T00:44:28;10.40;99.90
24468;DHT22;12634;50.852;5.676;2023-05-28T00:46:58;10.40;99.90
24468;DHT22;12634;50.852;5.676;2023-05-28T00:49:26;10.50;99.90
24468;DHT22;12634;50.852;5.676;2023-05-28T00:51:56;10.40;99.90
24468;DHT22;12634;50.852;5.676;2023-05-28T00:54:24;10.30;99.90
24468;DHT22;12634;50.852;5.676;2023-05-28T00:56:53;10.10;99.90
24468;DHT22;12634;50.852;5.676;2023-05-28T00:59:24;10.00;99.90
24468;DHT22;12634;50.852;5.676;2023-05-28T01:01:52;9.90;99.90
24468;DHT22;12634;50.852;5.676;2023-05-28T01:04:19;9.80;99.90
24468;DHT22;12634;50.852;5.676;2023-05-28T01:06:47;9.80;99.90
24468;DHT22;12634;50.852;5.676;2023-05-28T01:09:16;9.80;99.90
24468;DHT22;12634;50.852;5.676;2023-05-28T01:11:47;9.70;99.90
24468;DHT22;12634;50.852;5.676;2023-05-28T01:14:17;9.60;99.90
24468;DHT22;12634;50.852;5.676;2023-05-28T01:16:45;9.60;99.90
24468;DHT22;12634;50.852;5.676;2023-05-28T01:19:16;9.70;99.90
24468;DHT22;12634;50.852;5.676;2023-05-28T01:21:45;9.60;99.90
24468;DHT22;12634;50.852;5.676;2023-05-28T01:24:14;9.50;99.90
24468;DHT22;12634;50.852;5.676;2023-05-28T01:26:42;9.50;99.90
24468;DHT22;12634;50.852;5.676;2023-05-28T01:29:16;9.60;99.90
24468;DHT22;12634;50.852;5.676;2023-05-28T01:31:44;9.70;99.90
24468;DHT22;12634;50.852;5.676;2023-05-28T01:34:11;9.60;99.90
24468;DHT22;12634;50.852;5.676;2023-05-28T01:36:44;9.60;99.90
24468;DHT22;12634;50.852;5.676;2023-05-28T01:39:16;9.50;99.90
24468;DHT22;12634;50.852;5.676;2023-05-28T01:41:46;9.60;99.90
24468;DHT22;12634;50.852;5.676;2023-05-28T01:44:15;9.70;99.90
24468;DHT22;12634;50.852;5.676;2023-05-28T01:46:45;9.70;99.90
24468;DHT22;12634;50.852;5.676;2023-05-28T01:49:13;9.70;99.90
24468;DHT22;12634;50.852;5.676;2023-05-28T01:51:41;9.70;99.90
24468;DHT22;12634;50.852;5.676;2023-05-28T01:54:08;9.60;99.90
24468;DHT22;12634;50.852;5.676;2023-05-28T01:56:37;9.70;99.90
24468;DHT22;12634;50.852;5.676;2023-05-28T01:59:04;9.70;99.90
24468;DHT22;12634;50.852;5.676;2023-05-28T02:01:31;9.60;99.90
24468;DHT22;12634;50.852;5.676;2023-05-28T02:04:01;9.60;99.90
24468;DHT22;12634;50.852;5.676;2023-05-28T02:06:31;9.60;99.90
24468;DHT22;12634;50.852;5.676;2023-05-28T02:08:58;9.70;99.90
24468;DHT22;12634;50.852;5.676;2023-05-28T02:11:26;9.60;99.90
24468;DHT22;12634;50.852;5.676;2023-05-28T02:13:54;9.50;99.90
24468;DHT22;12634;50.852;5.676;2023-05-28T02:16:22;9.40;99.90
24468;DHT22;12634;50.852;5.676;2023-05-28T02:18:51;9.40;99.90
24468;DHT22;12634;50.852;5.676;2023-05-28T02:21:18;9.50;99.90
24468;DHT22;12634;50.852;5.676;2023-05-28T02:23:47;9.60;99.90
24468;DHT22;12634;50.852;5.676;2023-05-28T02:26:14;9.60;99.90
24468;DHT22;12634;50.852;5.676;2023-05-28T02:28:43;9.60;99.90
24468;DHT22;12634;50.852;5.676;2023-05-28T02:31:12;9.50;99.90
24468;DHT22;12634;50.852;5.676;2023-05-28T02:33:40;9.50;99.90
24468;DHT22;12634;50.852;5.676;2023-05-28T02:36:08;9.60;99.90
24468;DHT22;12634;50.852;5.676;2023-05-28T02:38:37;9.60;99.90
24468;DHT22;12634;50.852;5.676;2023-05-28T02:41:04;9.60;99.90
24468;DHT22;12634;50.852;5.676;2023-05-28T02:43:31;9.50;99.90
24468;DHT22;12634;50.852;5.676;2023-05-28T02:45:59;9.40;99.90
24468;DHT22;12634;50.852;5.676;2023-05-28T02:48:27;9.30;99.90
24468;DHT22;12634;50.852;5.676;2023-05-28T02:50:55;9.20;99.90
24468;DHT22;12634;50.852;5.676;2023-05-28T02:53:22;9.10;99.90
24468;DHT22;12634;50.852;5.676;2023-05-28T02:55:50;9.10;99.90
24468;DHT22;12634;50.852;5.676;2023-05-28T02:58:17;9.30;99.90
24468;DHT22;12634;50.852;5.676;2023-05-28T03:00:44;9.20;99.90
24468;DHT22;12634;50.852;5.676;2023-05-28T03:03:11;9.20;99.90
24468;DHT22;12634;50.852;5.676;2023-05-28T03:05:40;9.10;99.90
24468;DHT22;12634;50.852;5.676;2023-05-28T03:08:07;9.10;99.90
24468;DHT22;12634;50.852;5.676;2023-05-28T03:10:34;9.10;99.90
24468;DHT22;12634;50.852;5.676;2023-05-28T03:13:01;9.20;99.90
24468;DHT22;12634;50.852;5.676;2023-05-28T03:15:29;9.00;99.90
24468;DHT22;12634;50.852;5.676;2023-05-28T03:17:57;9.10;99.90
24468;DHT22;12634;50.852;5.676;2023-05-28T03:20:24;8.90;99.90
24468;DHT22;12634;50.852;5.676;2023-05-28T03:22:57;8.90;99.90
24468;DHT22;12634;50.852;5.676;2023-05-28T03:25:24;8.90;99.90
24468;DHT22;12634;50.852;5.676;2023-05-28T03:27:51;9.10;99.90
24468;DHT22;12634;50.852;5.676;2023-05-28T03:30:19;9.10;99.90
24468;DHT22;12634;50.852;5.676;2023-05-28T03:32:47;9.20;99.90
24468;DHT22;12634;50.852;5.676;2023-05-28T03:35:15;9.30;99.90
24468;DHT22;12634;50.852;5.676;2023-05-28T03:37:42;9.20;99.90
24468;DHT22;12634;50.852;5.676;2023-05-28T03:40:11;9.20;99.90
24468;DHT22;12634;50.852;5.676;2023-05-28T03:42:39;9.30;99.90
24468;DHT22;12634;50.852;5.676;2023-05-28T03:45:07;9.40;99.90
24468;DHT22;12634;50.852;5.676;2023-05-28T03:47:34;9.40;99.90
24468;DHT22;12634;50.852;5.676;2023-05-28T03:50:02;9.40;99.90
24468;DHT22;12634;50.852;5.676;2023-05-28T03:52:30;9.60;99.90
24468;DHT22;12634;50.852;5.676;2023-05-28T03:54:57;9.60;99.90
24468;DHT22;12634;50.852;5.676;2023-05-28T03:57:26;9.60;99.90
24468;DHT22;12634;50.852;5.676;2023-05-28T03:59:53;9.70;99.90
24468;DHT22;12634;50.852;5.676;2023-05-28T04:02:22;9.70;99.90
24468;DHT22;12634;50.852;5.676;2023-05-28T04:04:50;9.70;99.90
24468;DHT22;12634;50.852;5.676;2023-05-28T04:07:17;9.90;99.90
24468;DHT22;12634;50.852;5.676;2023-05-28T04:09:44;10.00;99.90
24468;DHT22;12634;50.852;5.676;2023-05-28T04:12:11;10.30;99.90
24468;DHT22;12634;50.852;5.676;2023-05-28T04:14:40;10.10;99.90
24468;DHT22;12634;50.852;5.676;2023-05-28T04:17:08;10.20;99.90
24468;DHT22;12634;50.852;5.676;2023-05-28T04:19:36;10.20;99.90
24468;DHT22;12634;50.852;5.676;2023-05-28T04:22:04;10.30;99.90
24468;DHT22;12634;50.852;5.676;2023-05-28T04:24:31;10.40;99.90
24468;DHT22;12634;50.852;5.676;2023-05-28T04:26:58;10.40;99.90
24468;DHT22;12634;50.852;5.676;2023-05-28T04:29:26;10.50;99.90
24468;DHT22;12634;50.852;5.676;2023-05-28T04:31:57;10.50;99.90
24468;DHT22;12634;50.852;5.676;2023-05-28T04:34:24;10.60;99.90
24468;DHT22;12634;50.852;5.676;2023-05-28T04:36:53;10.80;99.90
24468;DHT22;12634;50.852;5.676;2023-05-28T04:39:22;10.80;99.90
24468;DHT22;12634;50.852;5.676;2023-05-28T04:41:50;10.80;99.90
24468;DHT22;12634;50.852;5.676;2023-05-28T04:44:19;11.00;99.90
24468;DHT22;12634;50.852;5.676;2023-05-28T04:46:46;11.10;99.90
24468;DHT22;12634;50.852;5.676;2023-05-28T04:49:15;11.30;99.90
24468;DHT22;12634;50.852;5.676;2023-05-28T04:51:42;11.40;99.90
24468;DHT22;12634;50.852;5.676;2023-05-28T04:54:09;11.40;99.90
24468;DHT22;12634;50.852;5.676;2023-05-28T04:56:37;11.50;99.90
24468;DHT22;12634;50.852;5.676;2023-05-28T04:59:04;11.90;99.90
24468;DHT22;12634;50.852;5.676;2023-05-28T05:01:35;12.30;99.90
24468;DHT22;12634;50.852;5.676;2023-05-28T05:04:02;12.30;99.90
24468;DHT22;12634;50.852;5.676;2023-05-28T05:06:30;12.30;99.90
24468;DHT22;12634;50.852;5.676;2023-05-28T05:08:59;12.60;99.90
24468;DHT22;12634;50.852;5.676;2023-05-28T05:11:26;12.80;99.90
24468;DHT22;12634;50.852;5.676;2023-05-28T05:13:53;12.80;99.90
24468;DHT22;12634;50.852;5.676;2023-05-28T05:16:20;12.70;99.90
24468;DHT22;12634;50.852;5.676;2023-05-28T05:18:48;12.70;99.90
24468;DHT22;12634;50.852;5.676;2023-05-28T05:21:15;12.60;99.90
24468;DHT22;12634;50.852;5.676;2023-05-28T05:23:44;12.50;99.90
24468;DHT22;12634;50.852;5.676;2023-05-28T05:26:11;12.50;99.90
24468;DHT22;12634;50.852;5.676;2023-05-28T05:28:39;12.40;99.90
24468;DHT22;12634;50.852;5.676;2023-05-28T05:31:07;12.40;99.90
24468;DHT22;12634;50.852;5.676;2023-05-28T05:33:35;12.60;99.90
24468;DHT22;12634;50.852;5.676;2023-05-28T05:36:02;12.90;99.90
24468;DHT22;12634;50.852;5.676;2023-05-28T05:38:30;13.00;99.90
24468;DHT22;12634;50.852;5.676;2023-05-28T05:41:00;13.00;99.90
24468;DHT22;12634;50.852;5.676;2023-05-28T05:43:27;13.00;99.90
24468;DHT22;12634;50.852;5.676;2023-05-28T05:45:54;12.90;99.90
24468;DHT22;12634;50.852;5.676;2023-05-28T05:48:21;12.90;99.90
24468;DHT22;12634;50.852;5.676;2023-05-28T05:50:53;12.80;99.90
24468;DHT22;12634;50.852;5.676;2023-05-28T05:53:21;12.90;99.90
24468;DHT22;12634;50.852;5.676;2023-05-28T05:55:48;13.00;99.90
24468;DHT22;12634;50.852;5.676;2023-05-28T05:58:17;13.10;99.90
24468;DHT22;12634;50.852;5.676;2023-05-28T06:00:44;13.10;99.90
24468;DHT22;12634;50.852;5.676;2023-05-28T06:03:11;13.20;99.90
24468;DHT22;12634;50.852;5.676;2023-05-28T06:05:38;13.40;99.90
24468;DHT22;12634;50.852;5.676;2023-05-28T06:08:05;14.00;99.90
24468;DHT22;12634;50.852;5.676;2023-05-28T06:10:33;14.60;99.90
24468;DHT22;12634;50.852;5.676;2023-05-28T06:13:00;15.20;99.90
24468;DHT22;12634;50.852;5.676;2023-05-28T06:15:29;15.20;99.90
24468;DHT22;12634;50.852;5.676;2023-05-28T06:17:56;15.60;99.90
24468;DHT22;12634;50.852;5.676;2023-05-28T06:20:24;16.50;99.90
24468;DHT22;12634;50.852;5.676;2023-05-28T06:22:51;17.40;99.90
24468;DHT22;12634;50.852;5.676;2023-05-28T06:25:18;18.00;99.90
24468;DHT22;12634;50.852;5.676;2023-05-28T06:27:47;17.90;99.90
24468;DHT22;12634;50.852;5.676;2023-05-28T06:30:14;18.00;99.90
24468;DHT22;12634;50.852;5.676;2023-05-28T06:32:43;18.90;99.90
24468;DHT22;12634;50.852;5.676;2023-05-28T06:35:10;19.00;99.90
24468;DHT22;12634;50.852;5.676;2023-05-28T06:37:37;19.20;99.90
24468;DHT22;12634;50.852;5.676;2023-05-28T06:40:06;19.50;99.90
24468;DHT22;12634;50.852;5.676;2023-05-28T06:42:33;19.60;99.90
24468;DHT22;12634;50.852;5.676;2023-05-28T06:45:00;19.40;99.90
24468;DHT22;12634;50.852;5.676;2023-05-28T06:47:27;20.00;99.90
24468;DHT22;12634;50.852;5.676;2023-05-28T06:49:56;20.30;99.90
24468;DHT22;12634;50.852;5.676;2023-05-28T06:52:24;20.40;99.90
24468;DHT22;12634;50.852;5.676;2023-05-28T06:54:52;20.10;99.90
24468;DHT22;12634;50.852;5.676;2023-05-28T06:57:20;20.50;99.90
24468;DHT22;12634;50.852;5.676;2023-05-28T06:59:47;20.50;99.90
24468;DHT22;12634;50.852;5.676;2023-05-28T07:02:14;21.00;99.90
24468;DHT22;12634;50.852;5.676;2023-05-28T07:04:42;21.40;99.90
24468;DHT22;12634;50.852;5.676;2023-05-28T07:07:10;21.20;99.90
24468;DHT22;12634;50.852;5.676;2023-05-28T07:09:37;21.50;99.90
24468;DHT22;12634;50.852;5.676;2023-05-28T07:12:05;21.60;99.90
24468;DHT22;12634;50.852;5.676;2023-05-28T07:14:32;21.50;99.90
24468;DHT22;12634;50.852;5.676;2023-05-28T07:17:00;21.40;99.90
24468;DHT22;12634;50.852;5.676;2023-05-28T07:19:27;21.30;99.90
24468;DHT22;12634;50.852;5.676;2023-05-28T07:21:54;21.70;99.90
24468;DHT22;12634;50.852;5.676;2023-05-28T07:24:22;22.20;99.90
24468;DHT22;12634;50.852;5.676;2023-05-28T07:26:50;22.70;99.90
24468;DHT22;12634;50.852;5.676;2023-05-28T07:29:17;22.40;99.90
24468;DHT22;12634;50.852;5.676;2023-05-28T07:31:44;22.20;99.90
24468;DHT22;12634;50.852;5.676;2023-05-28T07:34:11;22.30;99.90
24468;DHT22;12634;50.852;5.676;2023-05-28T07:36:38;22.20;99.90
24468;DHT22;12634;50.852;5.676;2023-05-28T07:39:05;22.50;99.90
24468;DHT22;12634;50.852;5.676;2023-05-28T07:41:34;23.00;99.90
24468;DHT22;12634;50.852;5.676;2023-05-28T07:44:01;22.80;99.90
24468;DHT22;12634;50.852;5.676;2023-05-28T07:46:29;22.20;99.90
24468;DHT22;12634;50.852;5.676;2023-05-28T07:48:56;21.80;99.90
24468;DHT22;12634;50.852;5.676;2023-05-28T07:51:24;21.80;99.90
24468;DHT22;12634;50.852;5.676;2023-05-28T07:53:52;21.90;99.90
24468;DHT22;12634;50.852;5.676;2023-05-28T07:56:20;22.10;99.90
24468;DHT22;12634;50.852;5.676;2023-05-28T07:58:49;22.30;99.90
24468;DHT22;12634;50.852;5.676;2023-05-28T08:01:17;22.30;99.90
24468;DHT22;12634;50.852;5.676;2023-05-28T08:03:44;22.80;99.90
24468;DHT22;12634;50.852;5.676;2023-05-28T08:06:14;23.10;99.90
24468;DHT22;12634;50.852;5.676;2023-05-28T08:08:41;22.50;99.90
24468;DHT22;12634;50.852;5.676;2023-05-28T08:11:08;22.40;99.90
24468;DHT22;12634;50.852;5.676;2023-05-28T08:13:39;23.00;99.90
24468;DHT22;12634;50.852;5.676;2023-05-28T08:16:10;23.10;99.90
24468;DHT22;12634;50.852;5.676;2023-05-28T08:18:37;22.50;99.90
24468;DHT22;12634;50.852;5.676;2023-05-28T08:21:05;22.90;99.90
24468;DHT22;12634;50.852;5.676;2023-05-28T08:23:33;23.30;99.90
24468;DHT22;12634;50.852;5.676;2023-05-28T08:26:00;23.50;99.90
24468;DHT22;12634;50.852;5.676;2023-05-28T08:28:28;23.90;99.90
24468;DHT22;12634;50.852;5.676;2023-05-28T08:30:56;23.60;99.90
24468;DHT22;12634;50.852;5.676;2023-05-28T08:33:24;23.60;99.90
24468;DHT22;12634;50.852;5.676;2023-05-28T08:35:52;23.50;99.90
24468;DHT22;12634;50.852;5.676;2023-05-28T08:38:19;23.20;99.90
24468;DHT22;12634;50.852;5.676;2023-05-28T08:40:53;23.70;99.90
24468;DHT22;12634;50.852;5.676;2023-05-28T08:43:20;24.20;99.90
24468;DHT22;12634;50.852;5.676;2023-05-28T08:45:49;24.30;99.90
24468;DHT22;12634;50.852;5.676;2023-05-28T08:48:17;24.60;99.90
24468;DHT22;12634;50.852;5.676;2023-05-28T08:50:49;24.50;99.90
24468;DHT22;12634;50.852;5.676;2023-05-28T08:53:20;25.30;99.90
24468;DHT22;12634;50.852;5.676;2023-05-28T08:55:49;26.40;99.90
24468;DHT22;12634;50.852;5.676;2023-05-28T08:58:17;26.40;99.90
24468;DHT22;12634;50.852;5.676;2023-05-28T09:00:44;26.40;99.90
24468;DHT22;12634;50.852;5.676;2023-05-28T09:03:11;26.30;99.90
24468;DHT22;12634;50.852;5.676;2023-05-28T09:05:39;26.00;99.90
24468;DHT22;12634;50.852;5.676;2023-05-28T09:08:08;26.30;99.90
24468;DHT22;12634;50.852;5.676;2023-05-28T09:10:36;26.70;99.90
24468;DHT22;12634;50.852;5.676;2023-05-28T09:13:04;26.70;99.90
24468;DHT22;12634;50.852;5.676;2023-05-28T09:15:32;26.10;99.90
24468;DHT22;12634;50.852;5.676;2023-05-28T09:18:01;26.40;99.90
24468;DHT22;12634;50.852;5.676;2023-05-28T09:20:28;27.10;99.90
24468;DHT22;12634;50.852;5.676;2023-05-28T09:22:59;27.40;99.90
24468;DHT22;12634;50.852;5.676;2023-05-28T09:25:28;27.40;99.90
24468;DHT22;12634;50.852;5.676;2023-05-28T09:27:58;26.80;99.90
24468;DHT22;12634;50.852;5.676;2023-05-28T09:30:26;26.70;99.90
24468;DHT22;12634;50.852;5.676;2023-05-28T09:33:01;26.70;99.90
24468;DHT22;12634;50.852;5.676;2023-05-28T09:35:28;26.80;99.90
24468;DHT22;12634;50.852;5.676;2023-05-28T09:38:00;26.50;99.90
24468;DHT22;12634;50.852;5.676;2023-05-28T09:40:29;27.10;99.90
24468;DHT22;12634;50.852;5.676;2023-05-28T09:42:56;26.90;99.90
24468;DHT22;12634;50.852;5.676;2023-05-28T09:45:24;27.00;99.90
24468;DHT22;12634;50.852;5.676;2023-05-28T09:47:52;26.80;99.90
24468;DHT22;12634;50.852;5.676;2023-05-28T09:50:19;27.00;99.90
24468;DHT22;12634;50.852;5.676;2023-05-28T09:52:47;27.20;99.90
24468;DHT22;12634;50.852;5.676;2023-05-28T09:55:15;27.40;99.90
24468;DHT22;12634;50.852;5.676;2023-05-28T09:57:50;27.40;99.90
24468;DHT22;12634;50.852;5.676;2023-05-28T10:00:23;27.10;99.90
24468;DHT22;12634;50.852;5.676;2023-05-28T10:03:04;27.20;99.90
24468;DHT22;12634;50.852;5.676;2023-05-28T10:05:37;27.10;99.90
24468;DHT22;12634;50.852;5.676;2023-05-28T10:08:08;26.90;99.90
24468;DHT22;12634;50.852;5.676;2023-05-28T10:10:36;27.00;99.90
24468;DHT22;12634;50.852;5.676;2023-05-28T10:13:06;27.10;99.90
24468;DHT22;12634;50.852;5.676;2023-05-28T10:15:36;27.20;99.90
24468;DHT22;12634;50.852;5.676;2023-05-28T10:18:03;27.80;99.90
24468;DHT22;12634;50.852;5.676;2023-05-28T10:20:31;27.90;99.90
24468;DHT22;12634;50.852;5.676;2023-05-28T10:22:58;27.70;99.90
24468;DHT22;12634;50.852;5.676;2023-05-28T10:25:25;27.60;99.90
24468;DHT22;12634;50.852;5.676;2023-05-28T10:27:58;27.10;99.90
24468;DHT22;12634;50.852;5.676;2023-05-28T10:30:35;27.40;99.90
24468;DHT22;12634;50.852;5.676;2023-05-28T10:33:05;27.50;99.90
24468;DHT22;12634;50.852;5.676;2023-05-28T10:35:33;27.70;99.90
24468;DHT22;12634;50.852;5.676;2023-05-28T10:38:05;27.70;99.90
24468;DHT22;12634;50.852;5.676;2023-05-28T10:40:34;27.40;99.90
24468;DHT22;12634;50.852;5.676;2023-05-28T10:43:01;27.40;99.90
24468;DHT22;12634;50.852;5.676;2023-05-28T10:45:37;27.40;99.90
24468;DHT22;12634;50.852;5.676;2023-05-28T10:48:06;27.50;99.90
24468;DHT22;12634;50.852;5.676;2023-05-28T10:50:57;27.90;97.60
24468;DHT22;12634;50.852;5.676;2023-05-28T10:53:26;27.60;99.50
24468;DHT22;12634;50.852;5.676;2023-05-28T10:55:54;27.80;99.90
24468;DHT22;12634;50.852;5.676;2023-05-28T10:58:26;27.30;98.70
24468;DHT22;12634;50.852;5.676;2023-05-28T11:00:59;27.50;99.90
24468;DHT22;12634;50.852;5.676;2023-05-28T11:03:43;28.10;99.90
24468;DHT22;12634;50.852;5.676;2023-05-28T11:06:11;28.10;99.90
24468;DHT22;12634;50.852;5.676;2023-05-28T11:08:40;28.40;99.90
24468;DHT22;12634;50.852;5.676;2023-05-28T11:11:13;28.60;99.90
24468;DHT22;12634;50.852;5.676;2023-05-28T11:13:42;28.70;99.90
24468;DHT22;12634;50.852;5.676;2023-05-28T11:16:12;28.50;99.90
24468;DHT22;12634;50.852;5.676;2023-05-28T11:18:40;28.30;99.90
24468;DHT22;12634;50.852;5.676;2023-05-28T11:21:25;28.50;99.90
24468;DHT22;12634;50.852;5.676;2023-05-28T11:23:59;28.50;99.10
24468;DHT22;12634;50.852;5.676;2023-05-28T11:26:27;27.60;95.70
24468;DHT22;12634;50.852;5.676;2023-05-28T11:28:54;26.90;99.50
24468;DHT22;12634;50.852;5.676;2023-05-28T11:31:23;27.00;93.90
24468;DHT22;12634;50.852;5.676;2023-05-28T11:33:50;27.40;98.20
24468;DHT22;12634;50.852;5.676;2023-05-28T11:36:18;28.10;99.90
24468;DHT22;12634;50.852;5.676;2023-05-28T11:38:46;27.70;95.30
24468;DHT22;12634;50.852;5.676;2023-05-28T11:41:14;27.60;99.90
24468;DHT22;12634;50.852;5.676;2023-05-28T11:43:41;27.90;99.90
24468;DHT22;12634;50.852;5.676;2023-05-28T11:46:08;28.60;99.30
24468;DHT22;12634;50.852;5.676;2023-05-28T11:48:37;28.20;99.90
24468;DHT22;12634;50.852;5.676;2023-05-28T11:51:05;28.40;94.60
24468;DHT22;12634;50.852;5.676;2023-05-28T11:53:40;27.90;94.40
24468;DHT22;12634;50.852;5.676;2023-05-28T11:56:08;27.60;99.90
24468;DHT22;12634;50.852;5.676;2023-05-28T11:58:36;28.20;98.90
24468;DHT22;12634;50.852;5.676;2023-05-28T12:01:07;28.50;99.10
24468;DHT22;12634;50.852;5.676;2023-05-28T12:03:34;28.80;94.30
24468;DHT22;12634;50.852;5.676;2023-05-28T12:06:03;28.40;99.90
24468;DHT22;12634;50.852;5.676;2023-05-28T12:08:30;28.00;99.10
24468;DHT22;12634;50.852;5.676;2023-05-28T12:11:01;28.20;96.40
24468;DHT22;12634;50.852;5.676;2023-05-28T12:13:32;28.60;99.30
24468;DHT22;12634;50.852;5.676;2023-05-28T12:16:10;29.20;97.00
24468;DHT22;12634;50.852;5.676;2023-05-28T12:18:41;28.90;95.90
24468;DHT22;12634;50.852;5.676;2023-05-28T12:21:13;28.40;92.40
24468;DHT22;12634;50.852;5.676;2023-05-28T12:23:44;28.10;99.90
24468;DHT22;12634;50.852;5.676;2023-05-28T12:26:11;28.70;93.00
24468;DHT22;12634;50.852;5.676;2023-05-28T12:28:40;28.50;98.90
24468;DHT22;12634;50.852;5.676;2023-05-28T12:31:08;29.20;92.90
24468;DHT22;12634;50.852;5.676;2023-05-28T12:33:35;29.70;95.00
24468;DHT22;12634;50.852;5.676;2023-05-28T12:36:03;29.40;93.70
24468;DHT22;12634;50.852;5.676;2023-05-28T12:38:33;29.50;93.60
24468;DHT22;12634;50.852;5.676;2023-05-28T12:41:00;29.60;94.20
24468;DHT22;12634;50.852;5.676;2023-05-28T12:43:27;28.80;90.00
24468;DHT22;12634;50.852;5.676;2023-05-28T12:45:55;28.30;91.30
24468;DHT22;12634;50.852;5.676;2023-05-28T12:48:22;28.00;94.20
24468;DHT22;12634;50.852;5.676;2023-05-28T12:50:49;27.60;92.80
24468;DHT22;12634;50.852;5.676;2023-05-28T12:53:16;27.50;92.00
24468;DHT22;12634;50.852;5.676;2023-05-28T12:55:45;28.10;99.70
24468;DHT22;12634;50.852;5.676;2023-05-28T12:58:12;28.60;94.70
24468;DHT22;12634;50.852;5.676;2023-05-28T13:00:39;27.90;93.80
24468;DHT22;12634;50.852;5.676;2023-05-28T13:03:06;27.00;95.60
24468;DHT22;12634;50.852;5.676;2023-05-28T13:05:34;27.00;95.70
24468;DHT22;12634;50.852;5.676;2023-05-28T13:08:01;27.10;95.20
24468;DHT22;12634;50.852;5.676;2023-05-28T13:10:29;26.60;94.10
24468;DHT22;12634;50.852;5.676;2023-05-28T13:12:58;26.60;94.80
24468;DHT22;12634;50.852;5.676;2023-05-28T13:15:25;26.30;93.40
24468;DHT22;12634;50.852;5.676;2023-05-28T13:17:52;26.70;96.20
24468;DHT22;12634;50.852;5.676;2023-05-28T13:20:19;27.40;93.60
24468;DHT22;12634;50.852;5.676;2023-05-28T13:22:46;27.80;92.00
24468;DHT22;12634;50.852;5.676;2023-05-28T13:25:14;27.30;91.90
24468;DHT22;12634;50.852;5.676;2023-05-28T13:27:41;27.20;93.80
24468;DHT22;12634;50.852;5.676;2023-05-28T13:30:10;26.90;95.10
24468;DHT22;12634;50.852;5.676;2023-05-28T13:32:38;26.80;96.10
24468;DHT22;12634;50.852;5.676;2023-05-28T13:35:05;26.70;95.30
24468;DHT22;12634;50.852;5.676;2023-05-28T13:37:33;26.90;94.40
24468;DHT22;12634;50.852;5.676;2023-05-28T13:40:00;27.00;92.30
24468;DHT22;12634;50.852;5.676;2023-05-28T13:42:31;26.70;93.00
24468;DHT22;12634;50.852;5.676;2023-05-28T13:45:00;26.70;93.90
24468;DHT22;12634;50.852;5.676;2023-05-28T13:47:30;26.80;94.10
24468;DHT22;12634;50.852;5.676;2023-05-28T13:49:58;27.20;94.60
24468;DHT22;12634;50.852;5.676;2023-05-28T13:52:26;27.60;95.00
24468;DHT22;12634;50.852;5.676;2023-05-28T13:54:53;27.60;93.70
24468;DHT22;12634;50.852;5.676;2023-05-28T13:57:20;27.30;91.30
24468;DHT22;12634;50.852;5.676;2023-05-28T13:59:47;26.80;90.40
24468;DHT22;12634;50.852;5.676;2023-05-28T14:02:14;27.00;88.70
24468;DHT22;12634;50.852;5.676;2023-05-28T14:04:43;27.10;91.30
24468;DHT22;12634;50.852;5.676;2023-05-28T14:07:10;27.30;93.70
24468;DHT22;12634;50.852;5.676;2023-05-28T14:09:37;27.90;87.70
24468;DHT22;12634;50.852;5.676;2023-05-28T14:12:04;27.90;92.80
24468;DHT22;12634;50.852;5.676;2023-05-28T14:14:32;27.80;87.90
24468;DHT22;12634;50.852;5.676;2023-05-28T14:16:59;27.50;85.90
24468;DHT22;12634;50.852;5.676;2023-05-28T14:19:26;27.30;90.50
24468;DHT22;12634;50.852;5.676;2023-05-28T14:21:55;27.40;90.00
24468;DHT22;12634;50.852;5.676;2023-05-28T14:24:22;27.60;92.10
24468;DHT22;12634;50.852;5.676;2023-05-28T14:26:49;27.50;87.50
24468;DHT22;12634;50.852;5.676;2023-05-28T14:29:16;27.70;87.90
24468;DHT22;12634;50.852;5.676;2023-05-28T14:31:43;28.20;85.00
24468;DHT22;12634;50.852;5.676;2023-05-28T14:34:11;27.50;85.60
24468;DHT22;12634;50.852;5.676;2023-05-28T14:36:38;27.50;84.20
24468;DHT22;12634;50.852;5.676;2023-05-28T14:39:06;27.80;87.10
24468;DHT22;12634;50.852;5.676;2023-05-28T14:41:34;27.60;83.70
24468;DHT22;12634;50.852;5.676;2023-05-28T14:44:01;27.30;90.10
24468;DHT22;12634;50.852;5.676;2023-05-28T14:46:28;27.40;83.50
24468;DHT22;12634;50.852;5.676;2023-05-28T14:48:55;26.90;87.00
24468;DHT22;12634;50.852;5.676;2023-05-28T14:51:23;26.10;91.00
24468;DHT22;12634;50.852;5.676;2023-05-28T14:53:50;26.00;91.00
24468;DHT22;12634;50.852;5.676;2023-05-28T14:56:18;25.80;92.60
24468;DHT22;12634;50.852;5.676;2023-05-28T14:58:46;25.60;95.60
24468;DHT22;12634;50.852;5.676;2023-05-28T15:01:13;25.50;93.70
24468;DHT22;12634;50.852;5.676;2023-05-28T15:03:40;25.30;92.90
24468;DHT22;12634;50.852;5.676;2023-05-28T15:06:07;24.80;94.30
24468;DHT22;12634;50.852;5.676;2023-05-28T15:08:34;24.90;94.70
24468;DHT22;12634;50.852;5.676;2023-05-28T15:11:01;24.80;94.80
24468;DHT22;12634;50.852;5.676;2023-05-28T15:13:30;24.80;96.10
24468;DHT22;12634;50.852;5.676;2023-05-28T15:15:57;24.70;97.00
24468;DHT22;12634;50.852;5.676;2023-05-28T15:18:24;24.80;98.70
24468;DHT22;12634;50.852;5.676;2023-05-28T15:20:52;24.90;97.50
24468;DHT22;12634;50.852;5.676;2023-05-28T15:23:19;24.90;95.50
24468;DHT22;12634;50.852;5.676;2023-05-28T15:25:46;24.80;96.70
24468;DHT22;12634;50.852;5.676;2023-05-28T15:28:14;24.80;99.30
24468;DHT22;12634;50.852;5.676;2023-05-28T15:30:43;25.10;97.10
24468;DHT22;12634;50.852;5.676;2023-05-28T15:33:10;25.40;96.80
24468;DHT22;12634;50.852;5.676;2023-05-28T15:35:38;25.70;96.50
24468;DHT22;12634;50.852;5.676;2023-05-28T15:38:05;25.50;96.10
24468;DHT22;12634;50.852;5.676;2023-05-28T15:40:33;25.60;96.60